createdAt,value
2022-10-14T05:55:15.392Z,2.85
2022-10-14T05:57:44.306Z,2.75
2022-10-14T06:00:14.014Z,3.13
2022-10-14T06:02:45.394Z,3.05
2022-10-14T06:05:13.440Z,3.10
2022-10-14T06:07:40.495Z,2.90
2022-10-14T06:10:07.839Z,3.58
2022-10-14T06:12:34.844Z,3.97
2022-10-14T06:15:04.148Z,2.95
2022-10-14T06:17:31.365Z,3.20
2022-10-14T06:19:58.422Z,4.00
2022-10-14T06:22:25.497Z,3.85
2022-10-14T06:24:52.540Z,3.40
2022-10-14T06:27:19.696Z,3.70
2022-10-14T06:29:46.895Z,3.50
2022-10-14T06:32:13.944Z,3.50
2022-10-14T06:34:41.039Z,5.85
2022-10-14T06:37:08.076Z,3.50
2022-10-14T06:39:35.109Z,3.88
2022-10-14T06:42:03.130Z,7.93
2022-10-14T06:44:30.176Z,4.63
2022-10-14T06:46:57.226Z,4.38
2022-10-14T06:52:16.202Z,3.83
2022-10-14T06:54:48.005Z,6.13
2022-10-14T06:57:19.874Z,5.95
2022-10-14T06:59:46.975Z,6.25
2022-10-14T07:02:14.226Z,10.33
2022-10-14T07:04:41.561Z,5.03
2022-10-14T07:07:08.792Z,8.88
2022-10-14T07:09:47.550Z,9.38
2022-10-14T07:12:14.565Z,8.60
2022-10-14T07:14:41.622Z,9.55
2022-10-14T07:17:09.322Z,8.43
2022-10-14T07:19:36.328Z,7.50
2022-10-14T07:22:03.346Z,6.68
2022-10-14T07:24:30.404Z,8.02
2022-10-14T07:26:57.503Z,10.82
2022-10-14T07:29:29.603Z,8.27
2022-10-14T07:32:01.723Z,6.00
2022-10-14T07:34:29.517Z,9.90
2022-10-14T07:36:56.572Z,9.70
2022-10-14T07:39:25.750Z,7.07
2022-10-14T07:42:34.043Z,8.82
2022-10-14T07:45:01.491Z,7.38
2022-10-14T07:47:28.767Z,5.85
2022-10-14T07:49:55.965Z,7.07
2022-10-14T07:52:23.479Z,11.50
2022-10-14T07:54:56.455Z,5.65
2022-10-14T08:03:26.593Z,8.27
2022-10-14T08:06:01.472Z,6.15
2022-10-14T08:08:30.605Z,6.90
2022-10-14T08:11:09.140Z,6.03
2022-10-14T08:13:41.890Z,9.63
2022-10-14T08:16:13.852Z,7.93
2022-10-14T08:18:41.120Z,9.25
2022-10-14T08:21:08.151Z,9.52
2022-10-14T08:23:35.263Z,11.48
2022-10-14T08:26:02.641Z,9.10
2022-10-14T08:28:29.802Z,6.90
2022-10-14T08:30:57.051Z,10.23
2022-10-14T08:33:24.435Z,12.00
2022-10-14T08:35:54.014Z,8.20
2022-10-14T08:38:25.165Z,8.13
2022-10-14T08:40:55.648Z,7.70
2022-10-14T08:43:34.363Z,5.35
2022-10-14T08:46:22.632Z,7.97
2022-10-14T08:48:50.822Z,6.60
2022-10-14T08:51:18.730Z,8.82
2022-10-14T08:53:49.669Z,8.40
2022-10-14T08:56:20.980Z,7.85
2022-10-14T08:58:50.832Z,7.20
2022-10-14T09:01:17.864Z,7.95
2022-10-14T09:03:45.065Z,6.60
2022-10-14T09:06:28.356Z,7.80
2022-10-14T09:08:56.946Z,6.20
2022-10-14T09:11:25.383Z,8.20
2022-10-14T09:13:57.429Z,5.28
2022-10-14T09:16:30.463Z,5.82
2022-10-14T09:18:58.415Z,6.55
2022-10-14T09:21:40.387Z,6.77
2022-10-14T09:24:16.629Z,6.50
2022-10-14T09:26:45.597Z,8.60
2022-10-14T09:29:26.073Z,8.93
2022-10-14T09:31:54.508Z,6.93
2022-10-14T09:34:26.328Z,4.20
2022-10-14T09:36:54.182Z,3.08
2022-10-14T09:43:14.138Z,4.10
2022-10-14T09:45:49.487Z,4.53
2022-10-14T09:48:24.810Z,5.78
2022-10-14T09:50:56.208Z,4.95
2022-10-14T09:53:29.215Z,4.57
2022-10-14T09:55:58.388Z,6.72
2022-10-14T09:59:04.379Z,7.07
2022-10-14T10:01:42.444Z,4.07
2022-10-14T10:04:27.623Z,5.30
2022-10-14T10:06:56.117Z,6.20
2022-10-14T10:09:23.217Z,6.23
2022-10-14T10:11:50.245Z,6.75
2022-10-14T10:14:24.492Z,8.52
2022-10-14T10:16:52.584Z,6.65
2022-10-14T10:19:27.911Z,6.55
2022-10-14T10:21:55.607Z,6.22
2022-10-14T10:24:26.151Z,6.17
2022-10-14T10:26:55.789Z,6.10
2022-10-14T10:29:32.236Z,6.80
2022-10-14T10:32:06.553Z,7.43
2022-10-14T10:34:53.411Z,6.90
2022-10-14T10:37:28.690Z,5.53
2022-10-14T10:39:55.808Z,5.57
2022-10-14T10:42:28.405Z,4.65
2022-10-14T10:45:00.316Z,5.18
2022-10-14T10:47:27.662Z,7.40
2022-10-14T10:50:13.299Z,5.10
2022-10-14T10:52:49.899Z,8.15
2022-10-14T10:55:37.435Z,6.03
2022-10-14T10:58:07.479Z,3.97
2022-10-14T11:00:45.613Z,6.55
2022-10-14T11:03:12.662Z,5.53
2022-10-14T11:05:44.323Z,5.68
2022-10-14T11:08:45.471Z,6.65
2022-10-14T11:11:40.571Z,7.33
2022-10-14T11:14:24.586Z,6.55
2022-10-14T11:17:33.198Z,8.75
2022-10-14T11:20:00.404Z,5.53
2022-10-14T11:22:46.567Z,5.25
2022-10-14T11:25:22.752Z,6.75
2022-10-14T11:28:00.647Z,7.30
2022-10-14T11:30:27.777Z,6.13
2022-10-14T11:33:07.246Z,6.57
2022-10-14T11:56:55.240Z,8.88
2022-10-14T11:59:36.600Z,8.50
2022-10-14T12:02:26.066Z,8.38
2022-10-14T12:05:31.660Z,7.53
2022-10-14T12:08:17.609Z,5.32
2022-10-14T12:10:51.367Z,7.88
2022-10-14T12:13:20.355Z,8.93
2022-10-14T12:16:32.282Z,9.17
2022-10-14T12:18:59.354Z,8.38
2022-10-14T12:21:49.721Z,7.77
2022-10-14T12:24:19.915Z,9.47
2022-10-14T12:26:51.829Z,5.18
2022-10-14T12:29:45.289Z,6.88
2022-10-14T12:32:21.797Z,6.13
2022-10-14T12:34:49.968Z,8.18
2022-10-14T12:37:34.971Z,7.18
2022-10-14T12:40:02.735Z,8.57
2022-10-14T12:42:39.270Z,8.25
2022-10-14T12:45:22.542Z,7.82
2022-10-14T12:48:02.937Z,10.30
2022-10-14T12:50:36.857Z,12.60
2022-10-14T12:53:06.924Z,367.95
2022-10-14T12:55:38.867Z,222.10
2022-10-14T12:58:06.607Z,251.95
2022-10-14T13:00:39.071Z,156.33
2022-10-14T13:03:16.231Z,118.07
2022-10-14T13:05:47.939Z,84.75
2022-10-14T13:08:23.574Z,76.68
2022-10-14T13:11:09.967Z,59.28
2022-10-14T13:13:41.670Z,83.13
2022-10-14T13:16:31.779Z,70.90
2022-10-14T13:18:59.734Z,49.30
2022-10-14T13:21:38.823Z,51.35
2022-10-14T13:24:08.241Z,47.13
2022-10-14T13:26:59.109Z,54.10
2022-10-14T13:29:38.346Z,49.00
2022-10-14T13:32:08.381Z,54.05
2022-10-14T13:34:46.357Z,39.13
